createdAt,value
2023-04-18T00:03:01.639Z,31.42
2023-04-18T00:06:10.715Z,32.00
2023-04-18T00:09:16.438Z,29.25
2023-04-18T00:12:21.594Z,23.90
2023-04-18T00:15:27.338Z,31.98
2023-04-18T00:18:37.274Z,31.02
2023-04-18T00:21:45.292Z,31.48
2023-04-18T00:24:50.477Z,31.13
2023-04-18T00:27:56.259Z,31.55
2023-04-18T00:31:02.486Z,27.13
2023-04-18T00:34:13.479Z,30.55
2023-04-18T00:37:18.724Z,29.70
2023-04-18T00:40:24.410Z,28.25
2023-04-18T00:43:29.739Z,30.63
2023-04-18T00:46:35.159Z,29.13
2023-04-18T00:49:43.198Z,30.80
2023-04-18T00:52:49.248Z,29.45
2023-04-18T00:55:54.570Z,29.15
2023-04-18T00:59:00.504Z,23.15
2023-04-18T01:02:07.018Z,20.73
2023-04-18T01:05:15.778Z,30.98
2023-04-18T01:08:21.873Z,23.45
2023-04-18T01:11:27.493Z,25.30
2023-04-18T01:14:33.153Z,30.83
2023-04-18T01:17:38.785Z,31.05
2023-04-18T01:20:47.964Z,23.77
2023-04-18T01:23:53.906Z,28.52
2023-04-18T01:27:02.263Z,25.15
2023-04-18T01:33:13.096Z,26.80
2023-04-18T01:36:18.874Z,23.90
2023-04-18T01:39:24.600Z,23.67
2023-04-18T01:42:33.678Z,33.90
2023-04-18T01:45:39.090Z,29.35
2023-04-18T01:48:44.338Z,29.25
2023-04-18T01:51:50.724Z,28.40
2023-04-18T01:54:55.777Z,30.92
2023-04-18T01:58:04.122Z,28.55
2023-04-18T02:01:10.385Z,25.60
2023-04-18T02:04:16.642Z,32.85
2023-04-18T02:07:24.788Z,27.90
2023-04-18T02:10:30.150Z,29.80
2023-04-18T02:13:38.325Z,26.23
2023-04-18T02:16:46.825Z,25.63
2023-04-18T02:19:52.437Z,24.05
2023-04-18T02:22:57.997Z,30.63
2023-04-18T02:26:03.396Z,23.73
2023-04-18T02:29:11.433Z,32.00
2023-04-18T02:32:16.771Z,25.90
2023-04-18T02:35:23.338Z,33.20
2023-04-18T02:38:28.716Z,30.33
2023-04-18T02:41:35.477Z,25.45
2023-04-18T02:44:43.435Z,30.02
2023-04-18T02:47:55.584Z,39.63
2023-04-18T02:51:05.007Z,26.85
2023-04-18T02:54:13.248Z,29.73
2023-04-18T02:57:37.290Z,31.08
2023-04-18T03:01:04.815Z,35.67
2023-04-18T03:04:22.327Z,27.73
2023-04-18T03:07:35.730Z,28.02
2023-04-18T03:10:42.714Z,37.42
2023-04-18T03:13:48.281Z,30.27
2023-04-18T03:16:57.492Z,32.22
2023-04-18T03:20:08.683Z,30.20
2023-04-18T03:23:14.026Z,28.33
2023-04-18T03:26:19.548Z,28.83
2023-04-18T03:29:25.171Z,27.65
2023-04-18T03:32:34.078Z,30.63
2023-04-18T03:35:39.794Z,28.50
2023-04-18T03:38:45.560Z,31.25
2023-04-18T03:41:52.679Z,31.25
2023-04-18T03:44:58.926Z,30.95
2023-04-18T03:48:07.816Z,32.17
2023-04-18T03:51:18.076Z,30.92
2023-04-18T03:54:24.961Z,34.35
2023-04-18T03:57:29.998Z,27.13
2023-04-18T04:00:36.145Z,29.33
2023-04-18T04:03:48.817Z,26.40
2023-04-18T04:09:59.787Z,31.35
2023-04-18T04:13:05.459Z,29.95
2023-04-18T04:16:14.434Z,30.33
2023-04-18T04:19:22.584Z,24.02
2023-04-18T04:22:42.071Z,31.42
2023-04-18T04:25:49.357Z,38.45
2023-04-18T04:29:10.433Z,29.40
2023-04-18T04:32:17.598Z,34.58
2023-04-18T04:35:25.607Z,32.30
2023-04-18T04:38:31.335Z,32.28
2023-04-18T04:41:38.125Z,40.67
2023-04-18T04:44:44.606Z,38.05
2023-04-18T04:47:50.940Z,38.25
2023-04-18T04:50:59.928Z,32.10
2023-04-18T04:54:06.701Z,46.22
2023-04-18T04:57:12.152Z,39.35
2023-04-18T05:00:21.394Z,34.53
2023-04-18T05:03:27.069Z,35.20
2023-04-18T05:06:35.206Z,38.35
2023-04-18T05:09:40.632Z,34.15
2023-04-18T05:12:46.088Z,33.83
2023-04-18T05:15:52.541Z,40.95
2023-04-18T05:18:58.108Z,37.33
2023-04-18T05:22:06.142Z,42.90
2023-04-18T05:25:12.641Z,41.67
2023-04-18T05:28:17.922Z,40.00
2023-04-18T05:31:23.579Z,35.20
2023-04-18T05:34:28.894Z,42.00
2023-04-18T05:37:36.762Z,40.70
2023-04-18T05:40:42.990Z,39.78
2023-04-18T05:43:58.210Z,47.30
2023-04-18T05:47:09.974Z,40.22
2023-04-18T05:50:15.375Z,41.45
2023-04-18T05:53:23.211Z,41.88
2023-04-18T05:56:28.451Z,50.65
2023-04-18T05:59:33.686Z,39.35
2023-04-18T06:02:39.271Z,40.80
2023-04-18T06:05:44.883Z,41.13
2023-04-18T06:08:52.656Z,38.88
2023-04-18T06:11:58.267Z,39.85
2023-04-18T06:15:03.954Z,44.58
2023-04-18T06:18:10.929Z,47.47
2023-04-18T06:21:16.818Z,50.00
2023-04-18T06:24:24.792Z,51.83
2023-04-18T06:27:31.456Z,49.10
2023-04-18T06:30:37.811Z,36.28
2023-04-18T06:33:43.457Z,63.35
2023-04-18T06:36:49.558Z,31.60
2023-04-18T06:39:57.858Z,32.72
2023-04-18T06:43:03.650Z,32.05
2023-04-18T06:46:09.128Z,41.10
2023-04-18T06:49:14.613Z,32.72
2023-04-18T06:52:20.143Z,30.25
2023-04-18T06:55:27.860Z,26.38
2023-04-18T06:58:33.458Z,28.20
2023-04-18T07:01:42.966Z,33.45
2023-04-18T07:04:48.428Z,38.83
2023-04-18T07:07:54.778Z,32.42
2023-04-18T07:11:02.608Z,28.52
2023-04-18T07:14:08.151Z,34.08
2023-04-18T07:17:13.911Z,32.30
2023-04-18T07:20:19.581Z,28.25
2023-04-18T07:23:24.934Z,32.88
2023-04-18T07:26:32.692Z,31.17
2023-04-18T07:29:38.009Z,29.13
2023-04-18T07:32:43.426Z,28.02
2023-04-18T07:35:50.254Z,29.88
2023-04-18T07:38:55.705Z,31.27
2023-04-18T07:42:03.462Z,27.23
2023-04-18T07:45:09.582Z,33.08
2023-04-18T07:48:15.103Z,28.35
2023-04-18T07:51:20.581Z,21.77
2023-04-18T07:54:25.729Z,36.75
2023-04-18T07:57:33.898Z,31.42
2023-04-18T08:00:39.728Z,31.85
2023-04-18T08:03:45.199Z,30.30
2023-04-18T08:06:50.656Z,37.53
2023-04-18T08:09:56.008Z,28.08
2023-04-18T08:13:04.077Z,32.65
2023-04-18T08:16:09.975Z,32.95
2023-04-18T08:19:15.648Z,27.15
2023-04-18T08:22:21.385Z,29.00
2023-04-18T08:25:26.964Z,30.00
2023-04-18T08:28:35.184Z,25.45
2023-04-18T08:31:41.868Z,30.45
2023-04-18T08:34:47.877Z,27.25
2023-04-18T08:37:53.267Z,33.28
2023-04-18T08:40:58.856Z,26.95
2023-04-18T08:44:06.571Z,28.00
2023-04-18T08:47:12.820Z,29.10
2023-04-18T08:50:18.795Z,24.40
2023-04-18T08:53:24.124Z,27.50
2023-04-18T08:56:29.691Z,31.30
2023-04-18T08:59:37.894Z,25.85
2023-04-18T09:02:47.473Z,33.47
2023-04-18T09:06:09.437Z,42.00
2023-04-18T09:09:14.896Z,33.25
2023-04-18T09:12:22.888Z,34.13
2023-04-18T09:15:31.529Z,32.10
2023-04-18T09:18:36.951Z,34.90
2023-04-18T09:21:42.948Z,25.70
2023-04-18T09:24:54.334Z,27.90
2023-04-18T09:28:01.417Z,30.17
2023-04-18T09:31:15.727Z,28.65
2023-04-18T09:34:25.313Z,28.27
2023-04-18T09:37:31.179Z,33.22
2023-04-18T09:40:36.744Z,35.88
2023-04-18T09:43:42.238Z,27.08
2023-04-18T09:46:50.322Z,27.45
2023-04-18T09:49:55.972Z,27.55
2023-04-18T09:53:02.079Z,27.67
2023-04-18T09:56:08.723Z,28.27
2023-04-18T09:59:14.648Z,30.77
2023-04-18T10:02:24.050Z,26.10
2023-04-18T10:05:30.474Z,24.00
2023-04-18T10:08:36.344Z,32.65
2023-04-18T10:11:41.869Z,26.40
2023-04-18T10:14:47.667Z,23.77
2023-04-18T10:18:04.452Z,26.00
2023-04-18T10:21:12.120Z,28.10
2023-04-18T10:24:32.490Z,25.83
2023-04-18T10:27:52.502Z,23.50
2023-04-18T10:31:00.303Z,25.98
2023-04-18T10:34:09.808Z,24.75
2023-04-18T10:37:16.235Z,26.45
2023-04-18T10:40:35.097Z,24.58
2023-04-18T10:44:07.033Z,23.00
2023-04-18T10:47:35.516Z,25.77
2023-04-18T10:51:01.599Z,23.27
2023-04-18T10:54:08.753Z,27.27
2023-04-18T10:57:14.343Z,30.17
2023-04-18T11:00:22.029Z,27.30
2023-04-18T11:03:34.487Z,30.83
2023-04-18T11:06:53.549Z,23.45
2023-04-18T11:09:59.913Z,20.50
2023-04-18T11:13:08.607Z,25.88
2023-04-18T11:16:28.527Z,19.63
2023-04-18T11:19:33.902Z,17.92
2023-04-18T11:22:50.267Z,21.08
2023-04-18T11:25:58.574Z,20.35
2023-04-18T11:29:05.177Z,23.40
2023-04-18T11:32:11.107Z,21.27
2023-04-18T11:35:17.301Z,16.25
2023-04-18T11:38:30.831Z,22.90
2023-04-18T11:41:36.270Z,19.58
2023-04-18T11:44:44.356Z,15.55
2023-04-18T11:47:50.089Z,13.10
2023-04-18T11:50:55.752Z,17.63
2023-04-18T11:54:03.708Z,21.77
2023-04-18T12:00:15.928Z,17.75
2023-04-18T12:03:22.983Z,23.17
2023-04-18T12:06:28.956Z,22.40
2023-04-18T12:09:41.779Z,15.80
2023-04-18T12:12:50.799Z,14.32
2023-04-18T12:15:57.335Z,16.38
2023-04-18T12:19:03.897Z,20.58
2023-04-18T12:22:10.265Z,22.10
2023-04-18T12:25:27.904Z,15.57
2023-04-18T12:28:33.810Z,18.90
2023-04-18T12:31:39.392Z,17.85
2023-04-18T12:34:44.821Z,16.15
2023-04-18T12:37:50.468Z,17.88
2023-04-18T12:40:58.455Z,19.10
2023-04-18T12:47:09.314Z,20.52
2023-04-18T12:50:15.437Z,23.42
2023-04-18T12:53:20.995Z,20.92
2023-04-18T12:56:29.067Z,25.23
2023-04-18T12:59:34.492Z,26.48
2023-04-18T13:02:40.347Z,18.48
2023-04-18T13:05:46.105Z,30.02
2023-04-18T13:08:51.417Z,27.60
2023-04-18T13:11:59.505Z,22.40
2023-04-18T13:15:04.674Z,20.95
2023-04-18T13:18:11.067Z,19.77
2023-04-18T13:21:16.679Z,20.45
2023-04-18T13:24:22.942Z,23.80
2023-04-18T13:27:31.027Z,22.10
2023-04-18T13:33:42.784Z,27.55
2023-04-18T13:36:48.324Z,19.90
2023-04-18T13:39:54.168Z,22.33
2023-04-18T13:43:02.208Z,23.45
2023-04-18T13:46:08.285Z,31.73
2023-04-18T13:49:14.299Z,21.58
2023-04-18T13:52:19.783Z,25.23
2023-04-18T13:55:25.584Z,23.13
2023-04-18T13:58:33.591Z,23.27
2023-04-18T14:01:39.339Z,23.70
2023-04-18T14:04:46.934Z,22.23
2023-04-18T14:07:52.495Z,31.50
2023-04-18T14:10:58.134Z,23.63
2023-04-18T14:14:06.299Z,25.17
2023-04-18T14:17:11.760Z,22.77
2023-04-18T14:20:19.599Z,27.08
2023-04-18T14:23:26.208Z,23.90
2023-04-18T14:26:31.871Z,23.30
2023-04-18T14:29:40.272Z,21.27
2023-04-18T14:35:51.270Z,26.70
2023-04-18T14:38:56.441Z,23.05
2023-04-18T14:42:02.098Z,18.00
2023-04-18T14:45:11.588Z,20.73
2023-04-18T14:48:17.085Z,19.90
2023-04-18T14:51:22.422Z,22.40
2023-04-18T14:54:27.853Z,22.13
2023-04-18T14:57:33.142Z,20.88
2023-04-18T15:00:41.217Z,21.73
2023-04-18T15:03:46.668Z,19.13
2023-04-18T15:06:52.108Z,19.20
2023-04-18T15:09:57.817Z,21.63
2023-04-18T15:13:03.347Z,16.77
2023-04-18T15:16:11.552Z,20.27
2023-04-18T15:19:16.725Z,18.30
2023-04-18T15:22:21.915Z,20.77
2023-04-18T15:25:27.866Z,23.05
2023-04-18T15:28:34.013Z,27.27
2023-04-18T15:31:42.189Z,18.20
2023-04-18T15:34:47.558Z,22.88
2023-04-18T15:37:54.421Z,25.50
2023-04-18T15:40:59.705Z,24.88
2023-04-18T15:44:06.687Z,23.45
2023-04-18T15:47:16.192Z,24.08
2023-04-18T15:50:21.822Z,22.70
2023-04-18T15:53:27.302Z,25.48
2023-04-18T15:56:34.573Z,21.23
2023-04-18T15:59:40.111Z,20.33
2023-04-18T16:02:48.766Z,18.38
2023-04-18T16:05:54.666Z,19.70
2023-04-18T16:09:00.164Z,16.73
2023-04-18T16:12:07.715Z,16.60
2023-04-18T16:15:13.517Z,28.53
2023-04-18T16:18:21.637Z,19.90
2023-04-18T16:21:27.188Z,18.90
2023-04-18T16:24:32.438Z,24.20
2023-04-18T16:27:37.956Z,19.58
2023-04-18T16:30:45.348Z,21.42
2023-04-18T16:33:54.667Z,24.58
2023-04-18T16:37:00.143Z,19.15
2023-04-18T16:40:06.617Z,24.05
2023-04-18T16:43:11.905Z,18.65
2023-04-18T16:46:17.464Z,21.48
2023-04-18T16:49:26.454Z,19.50
2023-04-18T16:52:31.694Z,19.48
2023-04-18T16:55:37.322Z,20.08
2023-04-18T16:58:42.724Z,28.85
2023-04-18T17:01:48.593Z,19.27
2023-04-18T17:04:56.701Z,22.08
2023-04-18T17:08:04.085Z,21.98
2023-04-18T17:11:09.477Z,17.35
2023-04-18T17:14:15.034Z,17.80
2023-04-18T17:17:20.500Z,16.45
2023-04-18T17:20:28.782Z,18.58
2023-04-18T17:23:38.671Z,16.13
2023-04-18T17:26:44.598Z,17.58
2023-04-18T17:29:50.112Z,20.38
2023-04-18T17:32:56.273Z,14.85
2023-04-18T17:36:06.016Z,13.90
2023-04-18T17:39:11.450Z,14.32
2023-04-18T17:42:16.570Z,18.15
2023-04-18T17:45:22.171Z,15.80
2023-04-18T17:48:27.556Z,24.40
2023-04-18T17:51:35.975Z,18.27
2023-04-18T17:54:41.470Z,15.63
2023-04-18T17:57:47.363Z,20.23
2023-04-18T18:00:53.554Z,24.40
2023-04-18T18:03:59.308Z,20.55
2023-04-18T18:07:07.316Z,25.17
2023-04-18T18:10:13.245Z,19.33
2023-04-18T18:13:18.880Z,23.67
2023-04-18T18:16:24.585Z,15.93
2023-04-18T18:22:36.488Z,17.52
2023-04-18T18:25:42.022Z,22.25
2023-04-18T18:28:47.417Z,21.38
2023-04-18T18:31:53.050Z,22.60
2023-04-18T18:34:58.530Z,17.05
2023-04-18T18:38:06.495Z,16.90
2023-04-18T18:41:11.595Z,18.52
2023-04-18T18:44:17.259Z,21.02
2023-04-18T18:47:22.553Z,20.35
2023-04-18T18:50:28.014Z,16.63
2023-04-18T18:53:37.200Z,15.45
2023-04-18T18:56:44.835Z,17.48
2023-04-18T18:59:50.481Z,17.58
2023-04-18T19:02:56.144Z,17.48
2023-04-18T19:06:04.198Z,15.55
2023-04-18T19:09:12.390Z,16.08
2023-04-18T19:15:23.384Z,18.05
2023-04-18T19:18:28.815Z,22.55
2023-04-18T19:21:34.293Z,16.98
2023-04-18T19:24:42.362Z,13.70
2023-04-18T19:27:47.766Z,15.90
2023-04-18T19:30:53.391Z,15.40
2023-04-18T19:33:58.918Z,18.13
2023-04-18T19:37:04.289Z,17.13
2023-04-18T19:40:14.443Z,17.80
2023-04-18T19:43:19.884Z,16.38
2023-04-18T19:46:25.587Z,15.63
2023-04-18T19:49:30.688Z,18.88
2023-04-18T19:52:35.830Z,17.45
2023-04-18T19:55:44.703Z,17.75
2023-04-18T19:58:50.495Z,19.17
2023-04-18T20:01:56.683Z,23.25
2023-04-18T20:05:05.217Z,13.73
2023-04-18T20:08:10.507Z,15.38
2023-04-18T20:11:18.650Z,26.98
2023-04-18T20:14:23.960Z,13.32
2023-04-18T20:17:30.834Z,16.55
2023-04-18T20:20:36.298Z,21.00
2023-04-18T20:23:42.427Z,13.00
2023-04-18T20:26:51.886Z,17.67
2023-04-18T20:29:57.522Z,17.23
2023-04-18T20:33:03.598Z,15.27
2023-04-18T20:36:09.476Z,15.18
2023-04-18T20:39:15.945Z,15.18
2023-04-18T20:42:24.166Z,13.75
2023-04-18T20:45:29.493Z,19.40
2023-04-18T20:48:35.205Z,12.57
2023-04-18T20:51:40.986Z,14.63
2023-04-18T20:54:46.525Z,15.43
2023-04-18T20:57:54.460Z,13.73
2023-04-18T21:01:00.264Z,12.75
2023-04-18T21:04:05.726Z,13.55
2023-04-18T21:07:11.384Z,21.88
2023-04-18T21:10:16.759Z,12.68
2023-04-18T21:13:24.771Z,13.77
2023-04-18T21:16:30.352Z,14.77
2023-04-18T21:19:35.689Z,12.70
2023-04-18T21:22:41.267Z,15.35
2023-04-18T21:25:46.488Z,19.13
2023-04-18T21:28:57.817Z,15.38
2023-04-18T21:32:03.263Z,13.15
2023-04-18T21:35:09.435Z,10.60
2023-04-18T21:38:14.877Z,13.25
2023-04-18T21:41:20.881Z,11.00
2023-04-18T21:44:29.086Z,14.10
2023-04-18T21:47:35.214Z,13.68
2023-04-18T21:50:43.490Z,10.77
2023-04-18T21:53:48.938Z,13.88
2023-04-18T21:56:54.546Z,11.27
2023-04-18T22:00:02.711Z,13.77
2023-04-18T22:03:14.824Z,13.52
2023-04-18T22:06:21.268Z,12.30
2023-04-18T22:09:26.683Z,13.65
2023-04-18T22:12:32.710Z,12.68
2023-04-18T22:15:42.841Z,9.60
2023-04-18T22:18:49.146Z,12.65
2023-04-18T22:21:54.751Z,15.35
2023-04-18T22:25:00.082Z,14.23
2023-04-18T22:28:06.592Z,13.15
2023-04-18T22:31:14.713Z,12.65
2023-04-18T22:34:20.229Z,13.43
2023-04-18T22:37:25.379Z,13.90
2023-04-18T22:40:30.696Z,13.95
2023-04-18T22:43:36.157Z,17.83
2023-04-18T22:46:44.955Z,13.40
2023-04-18T22:49:50.381Z,16.00
2023-04-18T22:52:55.975Z,17.10
2023-04-18T22:56:01.216Z,12.07
2023-04-18T22:59:06.861Z,16.50
2023-04-18T23:02:15.348Z,11.60
2023-04-18T23:05:20.937Z,13.90
2023-04-18T23:08:26.148Z,13.07
2023-04-18T23:11:31.440Z,14.57
2023-04-18T23:14:37.606Z,13.52
2023-04-18T23:17:45.746Z,14.32
2023-04-18T23:20:51.170Z,13.98
2023-04-18T23:23:56.367Z,19.08
2023-04-18T23:27:01.824Z,12.85
2023-04-18T23:30:07.777Z,13.63
2023-04-18T23:33:16.977Z,15.10
2023-04-18T23:36:22.388Z,11.60
2023-04-18T23:39:29.130Z,12.65
2023-04-18T23:42:35.004Z,14.50
2023-04-18T23:45:40.568Z,11.93
2023-04-18T23:48:48.601Z,16.08
2023-04-18T23:51:53.769Z,13.03
2023-04-18T23:55:01.762Z,13.98
2023-04-18T23:58:09.827Z,12.73
